Time;durP1;ratioP1;P1;durP2;ratioP2;P2;SDS_P1;SDS_P2;PMS_P1;PMS_P2;Temp;Humidity;BMP_temperature;BMP_pressure;BME280_temperature;BME280_humidity;BME280_pressure;Samples;Min_cycle;Max_cycle;Signal;HPM_P1;HPM_P2
2022/05/07 00:00:06;;;;;;;13.05;9.05;;;13.30;99.90;;;13.51;74.69;101687.44;5131039;28;20055;-80
2022/05/07 00:02:37;;;;;;;;;;;13.30;99.90;;;13.47;74.91;101688.16;5132462;28;20059;-80
2022/05/07 00:05:10;;;;;;;15.80;8.98;;;13.30;99.90;;;13.46;74.72;101688.97;5131952;28;19922;-81
2022/05/07 00:07:42;;;;;;;14.23;9.07;;;13.20;99.90;;;13.44;74.70;101688.06;5132436;28;20323;-81
2022/05/07 00:10:14;;;;;;;15.05;9.13;;;13.20;99.90;;;13.39;75.15;101680.00;5132409;28;20047;-82
2022/05/07 00:12:46;;;;;;;14.85;9.20;;;13.20;99.90;;;13.42;75.03;101681.84;5135498;28;20454;-82
2022/05/07 00:15:19;;;;;;;16.77;10.23;;;13.20;99.90;;;13.41;74.83;101680.94;5135485;28;20047;-82
2022/05/07 00:18:03;;;;;;;14.85;9.20;;;13.20;99.90;;;13.40;75.25;101683.53;5143506;28;20057;-82
2022/05/07 00:20:36;;;;;;;15.10;9.60;;;13.20;99.90;;;13.35;75.15;101674.59;5144608;28;20051;-82
2022/05/07 00:23:08;;;;;;;15.45;10.18;;;13.20;99.90;;;13.33;75.23;101673.66;5135904;29;20425;-82
2022/05/07 00:25:40;;;;;;;19.15;10.77;;;13.10;99.90;;;13.29;75.64;101672.63;5136414;28;20062;-82
2022/05/07 00:28:12;;;;;;;16.17;9.32;;;13.10;99.90;;;13.32;75.76;101670.16;5137453;28;20043;-82
2022/05/07 00:30:45;;;;;;;16.65;10.45;;;13.10;99.90;;;13.28;75.59;101669.13;5137116;28;20057;-82
2022/05/07 00:33:17;;;;;;;17.13;10.63;;;13.10;99.90;;;13.24;75.74;101667.25;5136533;28;20513;-82
2022/05/07 00:35:49;;;;;;;16.58;10.23;;;13.00;99.90;;;13.23;75.79;101668.03;5137470;28;20061;-82
2022/05/07 00:38:21;;;;;;;18.27;10.80;;;13.00;99.90;;;13.19;76.04;101662.63;5137629;28;20051;-82
2022/05/07 00:40:53;;;;;;;17.88;11.10;;;13.00;99.90;;;13.27;75.72;101672.56;5138197;28;20062;-82
2022/05/07 00:43:25;;;;;;;18.90;11.32;;;13.00;99.90;;;13.27;75.33;101656.88;5137040;28;20057;-81
2022/05/07 00:45:59;;;;;;;16.08;10.70;;;13.10;99.90;;;13.25;75.43;101661.16;5137117;28;20055;-82
2022/05/07 00:48:32;;;;;;;19.63;11.35;;;13.10;99.90;;;13.19;75.36;101655.66;5138073;28;20051;-81
2022/05/07 00:53:55;;;;;;;19.60;11.75;;;13.00;99.90;;;13.07;75.85;101663.03;5141809;28;20117;-82
2022/05/07 00:56:27;;;;;;;18.38;11.82;;;12.90;99.90;;;12.99;76.27;101659.25;5148785;28;20074;-83
2022/05/07 00:59:00;;;;;;;18.85;12.05;;;12.80;99.90;;;12.98;76.58;101652.22;5148057;28;20054;-82
2022/05/07 01:01:34;;;;;;;22.38;12.02;;;12.80;99.90;;;12.95;76.77;101662.56;5146044;28;20494;-81
2022/05/07 01:04:06;;;;;;;23.30;12.07;;;12.80;99.90;;;12.87;76.77;101661.38;5146698;28;20050;-82
2022/05/07 01:06:38;;;;;;;20.38;12.50;;;12.70;99.90;;;12.75;77.54;101649.59;5141028;28;20524;-82
2022/05/07 01:09:12;;;;;;;18.38;11.27;;;12.60;99.90;;;12.77;77.58;101663.63;5156067;28;20518;-82
2022/05/07 01:11:45;;;;;;;18.77;11.70;;;12.60;99.90;;;12.69;77.61;101661.53;5155364;28;20053;-81
2022/05/07 01:14:17;;;;;;;17.25;10.18;;;12.50;99.90;;;12.63;77.64;101670.03;5155176;28;20133;-82
2022/05/07 01:16:51;;;;;;;18.88;11.70;;;12.50;99.90;;;12.59;77.92;101662.91;5155379;28;20070;-82
2022/05/07 01:19:23;;;;;;;20.52;12.07;;;12.40;99.90;;;12.57;78.03;101675.00;5155131;28;20057;-83
2022/05/07 01:21:56;;;;;;;18.05;11.45;;;12.40;99.90;;;12.52;78.61;101670.41;5154855;28;20057;-83
2022/05/07 01:24:29;;;;;;;20.02;11.98;;;12.40;99.90;;;12.49;78.77;101671.19;5155412;28;20055;-82
2022/05/07 01:27:01;;;;;;;20.90;12.35;;;12.30;99.90;;;12.49;78.88;101671.19;5156586;28;20053;-81
2022/05/07 01:29:33;;;;;;;22.58;13.50;;;12.30;99.90;;;12.47;78.98;101668.53;5156123;28;20051;-82
2022/05/07 01:32:06;;;;;;;20.35;12.48;;;12.30;99.90;;;12.47;79.25;101667.66;5154952;28;20058;-83
2022/05/07 01:34:38;;;;;;;22.90;12.27;;;12.30;99.90;;;12.44;79.04;101657.03;5156451;28;20069;-83
2022/05/07 01:37:11;;;;;;;20.80;13.07;;;12.30;99.90;;;12.39;79.21;101655.97;5156804;28;20129;-81
2022/05/07 01:39:43;;;;;;;20.50;11.95;;;12.20;99.90;;;12.36;79.52;101655.84;5156815;28;20421;-82
2022/05/07 01:42:15;;;;;;;20.20;12.07;;;12.20;99.90;;;12.31;79.38;101652.13;5155580;28;20412;-81
2022/05/07 01:44:47;;;;;;;23.70;14.07;;;12.20;99.90;;;12.30;79.88;101642.50;5157082;28;20086;-82
2022/05/07 01:50:09;;;;;;;23.00;14.57;;;12.10;99.90;;;12.28;80.04;101644.19;5156336;28;20062;-82
2022/05/07 01:52:43;;;;;;;25.55;14.57;;;12.10;99.90;;;12.30;80.01;101645.13;5156017;28;20053;-83
2022/05/07 01:55:15;;;;;;;27.20;15.95;;;12.10;99.90;;;12.34;80.01;101644.44;5155822;28;20057;-82
2022/05/07 01:57:47;;;;;;;26.85;15.98;;;12.20;99.90;;;12.36;79.93;101637.53;5156402;28;20067;-82
2022/05/07 02:00:19;;;;;;;28.95;16.17;;;12.20;99.90;;;12.35;79.88;101639.25;5146205;28;20047;-81
2022/05/07 02:02:51;;;;;;;30.38;17.77;;;12.20;99.90;;;12.30;80.14;101629.44;5156154;28;20520;-83
2022/05/07 02:05:24;;;;;;;26.98;16.27;;;12.20;99.90;;;12.41;79.89;101643.84;5158273;28;20046;-84
2022/05/07 02:07:58;;;;;;;26.25;16.17;;;12.20;99.90;;;12.43;79.56;101644.81;5161147;28;20051;-81
2022/05/07 02:10:30;;;;;;;27.38;16.95;;;12.30;99.90;;;12.42;79.55;101636.06;5156115;28;20481;-82
2022/05/07 02:13:02;;;;;;;27.95;16.33;;;12.20;99.90;;;12.44;79.31;101646.56;5156625;28;20042;-83
2022/05/07 02:15:35;;;;;;;28.85;16.65;;;12.30;99.90;;;12.41;78.81;101646.47;5156169;28;20058;-82
2022/05/07 02:18:08;;;;;;;29.27;17.30;;;12.30;99.90;;;12.44;79.37;101646.56;5155876;28;20058;-82
2022/05/07 02:20:40;;;;;;;27.75;17.50;;;12.30;99.90;;;12.45;79.13;101648.34;5156830;28;20101;-82
2022/05/07 02:23:15;;;;;;;30.10;17.90;;;12.30;99.90;;;12.44;78.51;101646.56;5156733;28;20499;-82
2022/05/07 02:25:47;;;;;;;27.38;16.45;;;12.30;99.90;;;12.31;78.42;101636.44;5155830;28;20564;-82
2022/05/07 02:28:19;;;;;;;27.80;16.85;;;12.20;99.90;;;12.28;78.95;101641.56;5155713;28;20062;-83
2022/05/07 02:30:51;;;;;;;29.27;17.02;;;12.20;99.90;;;12.23;79.12;101650.09;5156349;28;20073;-82
2022/05/07 02:33:23;;;;;;;27.10;17.00;;;12.10;99.90;;;12.14;79.19;101641.88;5156721;28;20061;-82
2022/05/07 02:35:55;;;;;;;31.50;17.75;;;12.00;99.90;;;12.10;79.70;101645.19;5156073;28;20545;-82
2022/05/07 02:38:29;;;;;;;29.95;17.65;;;12.00;99.90;;;12.03;80.01;101642.25;5155265;28;20299;-83
2022/05/07 02:43:51;;;;;;;27.13;17.38;;;11.90;99.90;;;11.97;80.55;101637.66;5155713;28;20055;-82
2022/05/07 02:46:23;;;;;;;29.10;17.85;;;11.90;99.90;;;11.94;80.73;101633.22;5155534;28;20069;-82
2022/05/07 02:48:55;;;;;;;28.60;17.55;;;11.80;99.90;;;11.93;80.87;101639.28;5155014;28;20050;-81
2022/05/07 02:51:27;;;;;;;29.30;16.60;;;11.80;99.90;;;11.91;80.72;101643.50;5154931;28;20138;-82
2022/05/07 02:54:00;;;;;;;30.75;17.30;;;11.70;99.90;;;11.89;80.81;101650.41;5155180;28;20057;-82
2022/05/07 02:56:32;;;;;;;28.70;17.45;;;11.70;99.90;;;11.79;80.83;101631.59;5155140;28;20061;-82
2022/05/07 02:59:04;;;;;;;27.42;17.15;;;11.70;99.90;;;11.79;81.07;101634.22;5155031;28;20250;-82
2022/05/07 03:01:36;;;;;;;30.23;16.30;;;11.70;99.90;;;11.78;81.20;101637.66;5154289;28;20046;-81
2022/05/07 03:04:08;;;;;;;29.42;17.17;;;11.70;99.90;;;11.74;81.55;101648.84;5155255;28;20059;-82
2022/05/07 03:06:41;;;;;;;29.98;16.63;;;11.60;99.90;;;11.71;81.15;101646.06;5154195;28;20050;-83
2022/05/07 03:09:14;;;;;;;26.45;15.98;;;11.60;99.90;;;11.65;81.52;101644.97;5146272;28;20053;-82
2022/05/07 03:11:46;;;;;;;28.13;17.55;;;11.50;99.90;;;11.63;81.74;101643.13;5147787;28;20126;-83
2022/05/07 03:14:18;;;;;;;29.67;16.90;;;11.50;99.90;;;11.60;81.86;101641.25;5154253;28;20051;-82
2022/05/07 03:16:50;;;;;;;30.13;17.63;;;11.50;99.90;;;11.58;81.95;101648.13;5152238;28;20507;-81
2022/05/07 03:19:22;;;;;;;30.25;17.67;;;11.50;99.90;;;11.57;82.50;101635.91;5152717;28;20118;-82
2022/05/07 03:21:55;;;;;;;32.13;18.23;;;11.50;99.90;;;11.63;82.45;101638.78;5152513;28;20046;-82
2022/05/07 03:24:28;;;;;;;34.42;18.42;;;11.50;99.90;;;11.65;82.34;101639.75;5154343;28;20063;-80
2022/05/07 03:27:02;;;;;;;32.03;18.17;;;11.50;99.90;;;11.67;81.97;101639.81;5155479;28;20133;-82
2022/05/07 03:29:34;;;;;;;32.47;18.45;;;11.50;99.90;;;11.58;82.00;101636.81;5155490;28;20524;-82
2022/05/07 03:32:08;;;;;;;30.67;18.08;;;11.50;99.90;;;11.61;82.08;101637.84;5164884;28;20095;-82
2022/05/07 03:34:39;;;;;;;31.38;17.80;;;11.50;99.90;;;11.58;81.94;101645.53;5170782;28;20031;-82
2022/05/07 03:37:12;;;;;;;31.30;19.13;;;11.50;99.90;;;11.47;82.32;101638.94;5169915;28;20041;-81
2022/05/07 03:39:46;;;;;;;34.20;18.75;;;11.40;99.90;;;11.48;82.59;101642.47;5160503;28;20055;-81
2022/05/07 03:42:19;;;;;;;30.27;18.08;;;11.40;99.90;;;11.51;82.54;101640.84;5154921;28;20081;-82
2022/05/07 03:44:51;;;;;;;32.03;18.65;;;11.40;99.90;;;11.47;82.52;101633.69;5156067;28;20047;-81
2022/05/07 03:47:23;;;;;;;35.08;19.50;;;11.40;99.90;;;11.51;82.39;101640.84;5155335;28;20076;-82
2022/05/07 03:49:55;;;;;;;31.85;18.52;;;11.40;99.90;;;11.52;82.25;101642.63;5166230;28;20050;-81
2022/05/07 03:55:18;;;;;;;32.47;19.35;;;11.40;99.90;;;11.54;82.17;101643.63;5152030;28;20061;-83
2022/05/07 03:57:50;;;;;;;34.90;17.38;;;11.50;99.90;;;11.54;82.03;101638.41;5151057;28;20425;-82
2022/05/07 04:00:22;;;;;;;34.22;18.55;;;11.40;99.90;;;11.53;82.48;101644.41;5151327;28;20051;-82
2022/05/07 04:02:54;;;;;;;32.05;17.80;;;11.40;99.90;;;11.47;82.18;101644.16;5152468;28;20058;-82
2022/05/07 04:05:26;;;;;;;32.25;19.23;;;11.40;99.90;;;11.45;82.47;101640.59;5153087;28;20047;-82
2022/05/07 04:07:58;;;;;;;30.88;18.08;;;11.40;99.90;;;11.45;82.80;101650.13;5152942;28;20133;-81
2022/05/07 04:10:32;;;;;;;32.65;19.45;;;11.30;99.90;;;11.44;82.92;101654.47;5153673;28;20050;-81
2022/05/07 04:13:04;;;;;;;32.05;18.85;;;11.30;99.90;;;11.43;83.31;101647.47;5152222;28;20067;-82
2022/05/07 04:15:36;;;;;;;32.72;19.15;;;11.30;99.90;;;11.46;83.57;101642.38;5153081;28;20134;-82
2022/05/07 04:20:41;;;;;;;32.60;19.38;;;11.40;99.90;;;11.55;83.19;101647.13;5098477;29;20044;-74
2022/05/07 04:23:13;;;;;;;34.78;19.85;;;11.40;99.90;;;11.57;82.85;101653.31;5103682;29;20054;-72
2022/05/07 04:25:47;;;;;;;34.33;19.52;;;11.40;99.90;;;11.59;82.85;101655.13;5104139;29;20047;-72
2022/05/07 04:28:19;;;;;;;32.90;18.60;;;11.50;99.90;;;11.60;82.44;101651.69;5104342;29;20059;-72
2022/05/07 04:30:51;;;;;;;31.80;18.70;;;11.50;99.90;;;11.60;82.52;101656.91;5104138;29;20052;-73
2022/05/07 04:33:26;;;;;;;33.78;18.75;;;11.50;99.90;;;11.62;82.53;101660.50;5103766;29;20047;-72
2022/05/07 04:35:58;;;;;;;31.60;18.15;;;11.50;99.90;;;11.64;82.88;101658.84;5104161;29;20048;-71
2022/05/07 04:38:30;;;;;;;29.77;17.90;;;11.50;99.90;;;11.65;82.79;101665.88;5104282;29;20047;-72
2022/05/07 04:41:03;;;;;;;32.25;17.02;;;11.50;99.90;;;11.66;82.85;101657.19;5104332;29;20500;-72
2022/05/07 04:43:35;;;;;;;33.47;19.05;;;11.50;99.90;;;11.69;83.11;101662.56;5103822;29;20058;-71
2022/05/07 04:46:07;;;;;;;29.52;18.17;;;11.50;99.90;;;11.73;83.32;101663.56;5104314;29;20052;-72
2022/05/07 04:48:41;;;;;;;32.58;19.65;;;11.60;99.90;;;11.77;83.45;101665.50;5104286;29;20074;-72
2022/05/07 04:51:13;;;;;;;32.15;19.75;;;11.60;99.90;;;11.82;83.37;101665.75;5104382;29;20051;-74
2022/05/07 04:53:45;;;;;;;34.92;18.55;;;11.70;99.90;;;11.89;83.32;101665.19;5103799;29;20054;-72
2022/05/07 04:56:21;;;;;;;33.22;19.15;;;11.70;99.90;;;11.94;83.31;101663.69;5104126;29;20047;-71
2022/05/07 04:58:53;;;;;;;32.35;18.88;;;11.70;99.90;;;11.98;83.09;101657.72;5106705;29;20056;-72
2022/05/07 05:01:25;;;;;;;33.60;19.30;;;11.80;99.90;;;12.00;82.99;101661.34;5107803;29;20073;-72
2022/05/07 05:03:57;;;;;;;34.80;20.10;;;11.80;99.90;;;12.10;82.60;101667.81;5107445;29;20048;-71
2022/05/07 05:06:29;;;;;;;33.80;19.17;;;11.90;99.90;;;12.16;82.37;101666.38;5107553;29;20054;-72
2022/05/07 05:09:01;;;;;;;34.28;20.10;;;11.90;99.90;;;12.21;82.08;101667.44;5107406;29;20137;-72
2022/05/07 05:11:37;;;;;;;35.58;20.75;;;12.00;99.90;;;12.30;82.35;101668.66;5107377;29;20052;-72
2022/05/07 05:16:55;;;;;;;32.33;18.92;;;12.20;99.90;;;12.59;81.84;101673.38;5106868;29;20055;-72
2022/05/07 05:19:27;;;;;;;34.92;20.17;;;12.30;99.90;;;12.76;81.30;101677.53;5107357;29;20055;-72
2022/05/07 05:21:59;;;;;;;33.92;20.15;;;12.50;99.90;;;12.94;80.39;101681.72;5107130;29;20055;-72
2022/05/07 05:24:31;;;;;;;33.30;20.50;;;12.60;99.90;;;13.03;79.43;101682.06;5107361;29;20519;-72
2022/05/07 05:27:05;;;;;;;32.95;20.55;;;12.70;99.90;;;13.06;78.69;101684.81;5106899;29;20048;-72
2022/05/07 05:29:37;;;;;;;32.53;19.27;;;12.80;99.90;;;13.10;78.54;101696.28;5107744;29;20102;-74
2022/05/07 05:32:09;;;;;;;32.83;19.75;;;12.80;99.90;;;13.16;78.44;101681.72;5107431;29;20051;-73
2022/05/07 05:34:41;;;;;;;32.30;19.65;;;12.90;99.90;;;13.27;78.58;101692.63;5106947;29;20054;-73
2022/05/07 05:37:15;;;;;;;29.92;18.73;;;12.90;99.90;;;13.36;78.07;101686.84;5107390;29;20056;-74
2022/05/07 05:39:47;;;;;;;32.08;19.80;;;13.00;99.90;;;13.48;77.78;101684.69;5106682;29;20054;-75
2022/05/07 05:42:21;;;;;;;30.45;18.60;;;13.20;99.90;;;13.65;76.99;101686.22;5106242;29;20055;-74
2022/05/07 05:44:53;;;;;;;35.13;20.98;;;13.30;99.90;;;13.80;76.15;101685.88;5106672;29;20063;-75
2022/05/07 05:47:25;;;;;;;29.33;18.40;;;13.50;99.90;;;13.90;75.36;101687.09;5106789;29;20055;-73
2022/05/07 05:49:57;;;;;;;30.25;17.70;;;13.60;99.90;;;14.06;74.87;101689.41;5106978;29;20051;-73
2022/05/07 05:52:29;;;;;;;29.85;18.13;;;13.70;99.90;;;14.17;73.91;101693.28;5106817;29;20056;-73
2022/05/07 05:55:01;;;;;;;29.00;18.65;;;13.80;99.90;;;14.24;73.65;101689.16;5107137;29;20054;-73
2022/05/07 05:57:34;;;;;;;30.77;18.23;;;13.80;99.90;;;14.43;73.23;101694.19;5107214;29;20485;-70
2022/05/07 06:00:08;;;;;;;27.05;17.48;;;14.00;99.90;;;14.63;72.47;101701.00;5106642;29;20560;-69
2022/05/07 06:02:43;;;;;;;29.30;17.90;;;14.10;99.90;;;14.81;72.30;101695.47;5106370;29;20051;-68
2022/05/07 06:05:17;;;;;;;26.52;17.60;;;14.30;99.90;;;15.09;71.93;101701.56;5106512;29;20051;-73
2022/05/07 06:07:49;;;;;;;26.20;17.25;;;14.50;99.90;;;15.28;70.07;101700.38;5106697;29;20083;-72
2022/05/07 06:10:21;;;;;;;34.80;22.13;;;14.70;99.90;;;15.52;69.22;101697.56;5106533;29;20047;-69
2022/05/07 06:12:54;;;;;;;25.02;17.20;;;14.90;99.90;;;15.83;67.84;101695.00;5106467;29;20062;-69
2022/05/07 06:15:26;;;;;;;22.98;15.77;;;15.10;99.90;;;16.04;66.49;101693.78;5106710;29;20054;-68
2022/05/07 06:17:58;;;;;;;25.73;16.23;;;15.40;99.90;;;16.38;64.62;101695.59;5105700;29;20047;-69
2022/05/07 06:20:30;;;;;;;23.13;14.85;;;15.60;99.90;;;16.52;63.59;101700.34;5105398;29;20057;-68
2022/05/07 06:23:02;;;;;;;24.33;16.38;;;15.80;99.90;;;16.77;63.12;101701.88;5104935;29;20062;-70
2022/05/07 06:28:25;;;;;;;24.80;15.13;;;16.30;99.80;;;17.37;60.63;101711.13;5105523;29;20062;-72
2022/05/07 06:30:59;;;;;;;24.13;14.18;;;16.60;99.20;;;17.61;59.68;101713.38;5105362;29;20400;-71
2022/05/07 06:33:32;;;;;;;23.58;14.52;;;16.90;98.40;;;17.85;58.87;101713.88;5104736;29;20052;-71
2022/05/07 06:36:05;;;;;;;21.40;13.80;;;17.10;97.90;;;18.04;57.38;101707.22;5104783;29;20048;-70
2022/05/07 06:38:37;;;;;;;20.83;13.32;;;17.30;96.80;;;18.26;56.97;101712.91;5105335;29;20051;-74
2022/05/07 06:41:09;;;;;;;22.33;14.18;;;17.50;96.40;;;18.45;55.92;101709.69;5104634;29;20055;-71
2022/05/07 06:43:42;;;;;;;21.38;13.68;;;17.70;95.50;;;18.69;54.41;101712.78;5105314;29;20408;-71
2022/05/07 06:46:14;;;;;;;20.65;13.65;;;17.90;94.20;;;18.79;53.35;101715.59;5105304;29;20048;-72
2022/05/07 06:48:46;;;;;;;19.45;13.75;;;18.00;93.20;;;18.90;52.52;101720.16;5105066;29;20572;-72
2022/05/07 06:51:18;;;;;;;20.38;12.68;;;18.20;92.20;;;19.09;52.15;101723.06;5104818;29;20058;-69
2022/05/07 06:53:50;;;;;;;20.38;13.60;;;18.30;91.80;;;19.34;51.68;101717.25;5105345;29;20062;-71
2022/05/07 06:56:22;;;;;;;23.63;13.70;;;18.50;91.30;;;19.61;50.76;101719.41;5105886;29;20058;-72
2022/05/07 06:58:56;;;;;;;20.25;13.20;;;18.70;90.50;;;19.83;49.65;101719.69;5104615;29;20058;-71
2022/05/07 07:01:27;;;;;;;21.55;13.70;;;18.90;88.90;;;20.01;48.86;101718.09;5123548;29;20047;-70
2022/05/07 07:03:59;;;;;;;21.75;14.45;;;19.10;87.10;;;20.27;49.04;101718.38;5125129;28;20086;-71
2022/05/07 07:06:31;;;;;;;17.65;12.80;;;19.30;86.90;;;20.54;48.62;101719.56;5125560;28;20436;-71
2022/05/07 07:09:04;;;;;;;18.60;13.02;;;19.50;86.10;;;20.74;48.36;101714.41;5125568;28;20054;-71
2022/05/07 07:11:36;;;;;;;20.27;12.77;;;19.80;85.30;;;20.89;47.70;101716.28;5124476;28;20137;-71
2022/05/07 07:14:10;;;;;;;19.52;13.45;;;19.90;83.80;;;20.96;46.67;101718.09;5124596;28;20047;-71
2022/05/07 07:16:42;;;;;;;20.30;13.13;;;20.00;81.50;;;21.11;46.95;101723.47;5124664;28;20141;-69
2022/05/07 07:19:16;;;;;;;18.77;12.43;;;20.10;81.80;;;21.20;46.17;101717.38;5087655;28;1091887;-70
2022/05/07 07:21:49;;;;;;;22.58;13.90;;;20.30;80.10;;;21.23;46.06;101707.66;5125421;28;20543;-71
2022/05/07 07:24:22;;;;;;;21.70;13.27;;;20.40;79.50;;;21.25;45.69;101719.13;5125188;28;20106;-70
2022/05/07 07:26:54;;;;;;;17.73;11.73;;;20.40;78.40;;;21.28;44.79;101715.63;5124851;28;20055;-71
2022/05/07 07:29:27;;;;;;;19.25;12.90;;;20.40;76.70;;;21.29;44.65;101718.31;5125133;28;20047;-71
2022/05/07 07:32:00;;;;;;;24.42;14.23;;;20.40;75.80;;;21.59;44.11;101722.00;5126275;28;20047;-72
2022/05/07 07:34:32;;;;;;;21.15;11.43;;;20.60;75.10;;;21.66;43.71;101719.38;5125873;28;20051;-72
2022/05/07 07:37:04;;;;;;;24.00;13.23;;;20.70;74.10;;;21.93;43.43;101718.59;5125701;28;20043;-71
2022/05/07 07:39:36;;;;;;;19.73;11.70;;;20.90;73.90;;;22.20;42.69;101719.56;5125886;28;20066;-71
2022/05/07 07:42:11;;;;;;;18.35;10.27;;;21.10;73.00;;;22.29;42.07;101716.91;5125610;28;20043;-63
2022/05/07 07:47:56;;;;;;;;;;;21.20;71.80;;;22.41;41.85;101722.22;5115136;28;20125;-63
2022/05/07 07:50:26;;;;;;;19.70;11.25;;;21.50;71.00;;;22.92;41.16;101720.47;5123963;29;20051;-61
2022/05/07 07:53:00;;;;;;;22.42;11.60;;;21.70;70.10;;;23.23;41.19;101715.09;5123873;28;20051;-62
2022/05/07 07:55:34;;;;;;;17.35;10.82;;;22.00;70.20;;;23.46;40.58;101718.53;5124116;28;20051;-61
2022/05/07 07:58:08;;;;;;;17.17;10.90;;;22.10;69.50;;;23.63;40.16;101715.88;5104397;28;20068;-63
2022/05/07 08:00:44;;;;;;;17.10;10.98;;;22.30;68.60;;;24.01;40.13;101717.44;5109954;29;20420;-63
2022/05/07 08:03:18;;;;;;;19.80;10.60;;;22.50;68.90;;;24.39;39.43;101725.22;5111593;28;20140;-59
2022/05/07 08:05:53;;;;;;;17.38;10.00;;;22.80;68.00;;;24.74;39.02;101716.03;5121191;28;20047;-61
2022/05/07 08:14:04;;;;;;;19.92;9.55;;;23.50;65.10;;;25.64;36.66;101718.63;5115042;29;20113;-63
2022/05/07 08:16:40;;;;;;;17.42;9.05;;;23.70;64.10;;;26.05;36.31;101714.50;5123702;28;20415;-63
2022/05/07 08:19:13;;;;;;;17.42;9.70;;;23.90;64.00;;;26.56;34.91;101724.44;5123886;28;20488;-61
2022/05/07 08:21:45;;;;;;;19.08;10.13;;;24.20;62.90;;;27.00;34.13;101713.84;5123645;28;20066;-63
2022/05/07 08:24:17;;;;;;;15.40;9.55;;;24.40;61.80;;;27.46;33.43;101714.75;5110668;28;20054;-62
2022/05/07 08:26:49;;;;;;;15.73;8.88;;;24.70;61.10;;;27.98;33.16;101721.69;5123422;28;20126;-61
2022/05/07 08:29:23;;;;;;;16.02;9.00;;;24.90;61.20;;;28.27;32.86;101726.34;5124237;28;20055;-61
2022/05/07 08:31:56;;;;;;;16.25;8.95;;;25.10;61.10;;;28.44;32.10;101723.31;5106185;28;20048;-60
2022/05/07 08:34:29;;;;;;;18.40;9.13;;;25.20;59.90;;;28.53;31.82;101725.75;5103390;29;20051;-63
2022/05/07 08:37:01;;;;;;;17.50;9.10;;;25.30;59.50;;;28.78;31.42;101721.53;5127594;28;20094;-63
2022/05/07 08:39:34;;;;;;;18.42;9.40;;;25.50;59.20;;;29.17;30.56;101718.72;5109287;28;20440;-61
2022/05/07 08:42:07;;;;;;;17.75;8.95;;;25.80;58.40;;;29.50;30.13;101721.34;5110173;29;20047;-63
2022/05/07 08:44:39;;;;;;;18.35;9.13;;;26.00;57.30;;;29.93;29.95;101721.84;5106468;29;20094;-61
2022/05/07 08:47:13;;;;;;;19.02;10.20;;;26.30;57.20;;;30.48;29.60;101719.22;5127272;28;20437;-72
2022/05/07 08:49:46;;;;;;;18.92;9.27;;;26.70;57.20;;;30.78;29.04;101717.31;5103589;29;20075;-70
2022/05/07 08:52:18;;;;;;;18.23;8.82;;;27.10;56.20;;;30.72;28.65;101723.78;5116831;29;20047;-70
2022/05/07 08:54:50;;;;;;;22.33;9.93;;;27.30;55.60;;;30.61;28.76;101720.56;5108874;28;20043;-70
2022/05/07 08:57:22;;;;;;;20.35;8.70;;;27.30;54.80;;;30.65;28.37;101710.56;5126385;28;20498;-70
2022/05/07 08:59:54;;;;;;;20.52;9.70;;;27.20;54.40;;;30.84;28.14;101713.50;5127594;28;20051;-71
2022/05/07 09:02:27;;;;;;;17.63;8.65;;;27.40;54.80;;;30.87;28.38;101711.59;5126931;28;20053;-70
2022/05/07 09:05:00;;;;;;;18.02;8.85;;;27.60;54.30;;;30.44;28.58;101718.41;5127428;28;20053;-70
2022/05/07 09:07:32;;;;;;;18.52;8.73;;;27.40;54.00;;;30.23;29.22;101713.75;5127312;28;20053;-71
2022/05/07 09:10:11;;;;;;;16.27;8.50;;;27.30;54.60;;;30.06;29.46;101724.13;5127469;28;20058;-70
2022/05/07 09:12:46;;;;;;;20.17;9.05;;;27.30;54.70;;;29.80;29.91;101708.81;5127202;28;20180;-70
2022/05/07 09:15:18;;;;;;;19.42;9.05;;;27.10;54.40;;;29.71;29.12;101705.50;5127602;28;20061;-72
2022/05/07 09:17:51;;;;;;;25.27;9.40;;;27.10;53.60;;;29.73;29.36;101702.75;5127038;28;20102;-73
2022/05/07 09:20:25;;;;;;;20.02;8.77;;;27.10;53.90;;;29.55;30.06;101708.72;5127154;28;20053;-69
2022/05/07 09:22:59;;;;;;;18.48;8.10;;;27.10;54.00;;;29.19;31.00;101703.44;5127061;28;20110;-69
2022/05/07 09:25:31;;;;;;;19.65;8.43;;;27.00;54.50;;;28.81;31.00;101705.31;5127256;28;20055;-69
2022/05/07 09:28:03;;;;;;;17.85;9.52;;;26.90;54.90;;;28.26;31.68;101706.72;5127072;28;20504;-70
2022/05/07 09:30:35;;;;;;;17.20;8.05;;;26.80;54.60;;;27.66;32.44;101699.16;5127296;28;20138;-71
2022/05/07 09:33:09;;;;;;;21.15;9.25;;;26.30;54.60;;;27.42;33.13;101694.31;5126656;28;20048;-71
2022/05/07 09:35:49;;;;;;;20.30;8.82;;;26.20;55.30;;;27.35;33.79;101693.56;5126837;28;20054;-69
2022/05/07 09:38:25;;;;;;;22.85;9.23;;;26.10;55.90;;;27.35;34.10;101679.28;5126780;28;20047;-70
2022/05/07 09:40:57;;;;;;;19.40;8.65;;;26.10;56.60;;;27.24;34.67;101676.81;5127078;28;20543;-70
2022/05/07 09:43:31;;;;;;;20.88;9.63;;;26.00;56.90;;;27.04;34.33;101678.06;5125942;28;20054;-70
2022/05/07 09:46:03;;;;;;;16.52;8.35;;;25.90;56.40;;;26.93;34.47;101688.13;5125835;28;20138;-70
2022/05/07 09:48:38;;;;;;;20.70;8.50;;;25.80;56.80;;;26.73;34.56;101685.81;5119803;28;20058;-70
2022/05/07 09:51:12;;;;;;;17.63;8.20;;;25.70;56.40;;;26.69;35.17;101684.09;5115062;29;20408;-71
2022/05/07 09:59:23;;;;;;;18.67;8.07;;;25.40;58.30;;;26.53;36.18;101679.91;5126543;29;20571;-70
2022/05/07 10:02:16;;;;;;;15.98;7.50;;;25.40;58.30;;;26.59;36.11;101676.25;5098343;28;20118;-70
2022/05/07 10:05:21;;;;;;;15.80;7.28;;;25.40;58.40;;;26.77;35.88;101679.47;5115066;29;20061;-70
2022/05/07 10:08:18;;;;;;;15.52;7.07;;;25.50;58.40;;;26.81;35.37;101679.44;5109114;28;20055;-73
2022/05/07 10:10:52;;;;;;;16.77;7.10;;;25.50;57.70;;;26.79;35.39;101677.63;5124911;28;20055;-70
2022/05/07 10:13:24;;;;;;;14.68;5.63;;;25.60;57.80;;;26.81;35.65;101679.44;5126010;28;20059;-70
2022/05/07 10:16:00;;;;;;;16.50;7.00;;;25.60;57.80;;;26.92;34.93;101669.41;5126276;28;20051;-70
2022/05/07 10:21:15;;;;;;;;;;;25.70;57.10;;;27.07;34.78;101665.59;5155206;23;20407;-71
2022/05/07 10:23:55;;;;;;;20.08;8.50;;;25.80;56.70;;;27.13;34.49;101661.00;5139622;28;19922;-71
2022/05/07 10:26:40;;;;;;;17.65;7.68;;;25.90;56.60;;;27.11;34.05;101668.16;5146010;28;20561;-71
2022/05/07 10:29:25;;;;;;;18.60;7.53;;;25.90;56.20;;;27.15;33.20;101664.50;5149309;28;20046;-63
2022/05/07 10:32:04;;;;;;;13.50;6.55;;;25.90;55.00;;;27.15;33.33;101659.16;5142886;28;20402;-62
2022/05/07 10:34:36;;;;;;;14.45;6.65;;;25.90;55.10;;;27.16;33.60;101655.56;5150916;28;20050;-63
2022/05/07 10:37:10;;;;;;;15.98;7.25;;;25.90;55.50;;;27.12;33.54;101664.56;5165100;28;20419;-63
2022/05/07 10:39:52;;;;;;;19.30;6.93;;;25.90;55.50;;;27.18;33.49;101658.22;5145599;28;20097;-62
2022/05/07 10:42:27;;;;;;;19.75;9.18;;;25.90;55.60;;;27.24;33.15;101656.28;5145530;28;20121;-62
2022/05/07 10:45:01;;;;;;;17.33;6.40;;;26.00;55.30;;;27.26;33.23;101653.59;5137183;28;20130;-63
2022/05/07 10:47:33;;;;;;;13.18;6.20;;;26.00;55.00;;;27.21;33.21;101648.34;5140817;28;20043;-63
2022/05/07 10:50:13;;;;;;;14.20;6.75;;;26.00;55.00;;;27.10;33.52;101650.34;5138328;28;20043;-63
2022/05/07 10:52:55;;;;;;;14.57;7.10;;;25.90;55.30;;;27.02;33.54;101646.91;5150505;28;20048;-63
2022/05/07 10:55:29;;;;;;;13.60;5.65;;;25.80;55.20;;;27.25;33.47;101639.31;5164778;28;20057;-61
2022/05/07 10:58:01;;;;;;;13.98;7.13;;;25.90;55.50;;;27.32;32.30;101637.38;5165049;28;20050;-63
2022/05/07 11:00:34;;;;;;;16.80;7.70;;;26.00;53.90;;;27.38;32.29;101633.69;5164958;28;20085;-62
2022/05/07 11:03:08;;;;;;;122.03;42.20;;;26.10;54.00;;;27.40;33.49;101639.91;5164557;28;20054;-63